Time;durP1;ratioP1;P1;durP2;ratioP2;P2;SDS_P1;SDS_P2;PMS_P1;PMS_P2;Temp;Humidity;BMP_temperature;BMP_pressure;BME280_temperature;BME280_humidity;BME280_pressure;Samples;Min_cycle;Max_cycle;Signal;HPM_P1;HPM_P2
2022/04/19 00:01:26;;;;;;;2.43;1.90;;;;;;;6.77;55.86;101181.50;5028969;28;20298;-53
2022/04/19 00:03:52;;;;;;;2.20;1.83;;;;;;;6.73;56.14;101183.16;5029203;28;20247;-53
2022/04/19 00:06:19;;;;;;;3.03;2.23;;;;;;;6.71;56.20;101174.44;5031666;28;20227;-53
2022/04/19 00:08:48;;;;;;;3.27;2.50;;;;;;;6.72;56.54;101176.19;5043671;28;20243;-52
2022/04/19 00:11:17;;;;;;;1.80;1.70;;;;;;;6.60;57.15;101173.28;5017048;28;20247;-53
2022/04/19 00:13:45;;;;;;;2.87;2.30;;;;;;;6.52;56.95;101167.03;5029323;28;20833;-53
2022/04/19 00:16:11;;;;;;;2.13;1.93;;;;;;;6.57;56.85;101166.31;5027781;28;20596;-54
2022/04/19 00:18:37;;;;;;;2.17;1.97;;;;;;;6.53;57.39;101164.47;5027962;28;20286;-52
2022/04/19 00:21:04;;;;;;;2.10;1.77;;;;;;;6.61;57.29;101165.50;5028843;28;20386;-52
2022/04/19 00:23:39;;;;;;;2.60;2.40;;;;;;;6.52;57.72;101162.69;5028839;28;20232;-53
2022/04/19 00:26:05;;;;;;;2.20;2.03;;;;;;;6.49;58.01;101157.41;5028171;28;20243;-53
2022/04/19 00:28:32;;;;;;;3.07;2.00;;;;;;;6.54;58.28;101160.13;5027536;28;20711;-53
2022/04/19 00:31:00;;;;;;;5.07;1.87;;;;;;;6.62;58.50;101156.84;5028889;28;20746;-53
2022/04/19 00:33:27;;;;;;;3.77;1.90;;;;;;;6.55;59.03;101157.53;5029019;28;20235;-51
2022/04/19 00:35:53;;;;;;;3.97;2.03;;;;;;;6.54;59.17;101155.78;5028939;28;20244;-54
2022/04/19 00:38:20;;;;;;;5.17;1.93;;;;;;;6.48;59.28;101155.66;5027982;28;20241;-53
2022/04/19 00:40:46;;;;;;;2.63;1.90;;;;;;;6.52;58.91;101147.03;5029246;28;20239;-53
2022/04/19 00:43:13;;;;;;;2.30;2.10;;;;;;;6.55;59.15;101156.66;5028141;28;20237;-53
2022/04/19 00:45:39;;;;;;;1.87;1.67;;;;;;;6.54;58.66;101150.56;5027874;28;20240;-54
2022/04/19 00:48:07;;;;;;;3.47;2.10;;;;;;;6.56;58.77;101151.47;5023891;28;20294;-54
2022/04/19 00:50:34;;;;;;;3.90;2.00;;;;;;;6.55;58.74;101146.25;5027222;28;20236;-53
2022/04/19 00:53:04;;;;;;;2.37;1.97;;;;;;;6.58;59.03;101152.41;5028254;28;20283;-53
2022/04/19 00:55:30;;;;;;;2.10;1.83;;;;;;;6.49;58.98;101154.78;5028062;28;20240;-53
2022/04/19 00:58:00;;;;;;;2.63;2.40;;;;;;;6.42;59.61;101152.91;5027877;28;20241;-53
2022/04/19 01:00:28;;;;;;;2.50;2.00;;;;;;;6.40;59.41;101147.66;5027202;28;20236;-52
2022/04/19 01:02:55;;;;;;;4.67;2.07;;;;;;;6.43;59.37;101142.50;5028252;28;20243;-53
2022/04/19 01:05:22;;;;;;;2.93;1.90;;;;;;;6.41;59.69;101143.31;5028547;28;20750;-52
2022/04/19 01:07:49;;;;;;;1.93;1.73;;;;;;;6.33;59.83;101144.88;5028544;28;20710;-52
2022/04/19 01:10:15;;;;;;;2.10;1.77;;;;;;;6.21;60.20;101135.03;5028493;28;20286;-52
2022/04/19 01:15:26;;;;;;;3.60;1.90;;;;;;;6.14;61.03;101134.03;5027911;28;20886;-53
2022/04/19 01:17:56;;;;;;;3.07;1.87;;;;;;;6.18;61.06;101135.88;5027791;28;20310;-52
2022/04/19 01:20:24;;;;;;;1.83;1.60;;;;;;;6.22;60.69;101142.03;5026948;28;20283;-52
2022/04/19 01:22:52;;;;;;;2.80;2.60;;;;;;;6.21;61.04;101135.94;5025906;28;20232;-52
2022/04/19 01:25:21;;;;;;;2.37;1.73;;;;;;;6.18;60.99;101132.38;5026165;28;20232;-52
2022/04/19 01:27:48;;;;;;;1.67;1.57;;;;;;;6.15;61.68;101130.56;5028353;28;20228;-52
2022/04/19 01:30:16;;;;;;;1.90;1.70;;;;;;;6.06;61.74;101135.56;5027497;28;20704;-52
2022/04/19 01:32:44;;;;;;;2.00;1.80;;;;;;;6.05;62.26;101136.41;5027733;28;20255;-53
2022/04/19 01:35:15;;;;;;;3.33;2.03;;;;;;;5.89;63.04;101132.50;5027854;28;20315;-53
2022/04/19 01:37:42;;;;;;;4.97;2.10;;;;;;;5.87;63.54;101126.41;5027120;28;20237;-54
2022/04/19 01:40:18;;;;;;;3.47;2.10;;;;;;;5.85;63.59;101124.59;5026760;28;20298;-52
2022/04/19 01:42:45;;;;;;;4.23;2.00;;;;;;;5.78;63.95;101122.69;5015087;28;20229;-52
2022/04/19 01:45:14;;;;;;;1.47;1.37;;;;;;;5.77;64.34;101120.94;5026861;28;20232;-52
2022/04/19 01:47:40;;;;;;;2.23;2.03;;;;;;;5.82;63.93;101128.00;5026939;28;20243;-53
2022/04/19 01:50:11;;;;;;;3.67;1.93;;;;;;;5.79;64.05;101125.34;5026928;28;20232;-52
2022/04/19 01:52:38;;;;;;;2.33;2.10;;;;;;;5.87;64.28;101121.19;5027048;28;20290;-52
2022/04/19 01:55:05;;;;;;;2.17;1.97;;;;;;;5.80;64.69;101118.41;5026656;28;20727;-52
2022/04/19 01:57:33;;;;;;;2.60;1.83;;;;;;;5.69;65.08;101118.13;5026987;28;20611;-52
2022/04/19 02:00:00;;;;;;;3.63;1.60;;;;;;;5.68;65.76;101112.03;5026113;28;20236;-53
2022/04/19 02:02:29;;;;;;;2.40;1.87;;;;;;;5.70;65.88;101115.56;5026138;28;20635;-54
2022/04/19 02:04:57;;;;;;;2.17;1.83;;;;;;;5.67;65.91;101107.66;5026586;28;20243;-53
2022/04/19 02:07:24;;;;;;;2.73;2.47;;;;;;;5.54;66.34;101108.19;5026907;28;20243;-54
2022/04/19 02:09:50;;;;;;;2.40;2.00;;;;;;;5.58;66.39;101110.06;5025391;28;20298;-53
2022/04/19 02:12:17;;;;;;;2.20;2.10;;;;;;;5.57;66.82;101103.06;5027330;28;20232;-55
2022/04/19 02:14:44;;;;;;;2.13;1.93;;;;;;;5.66;66.22;101105.91;5023937;28;20316;-54
2022/04/19 02:17:11;;;;;;;2.20;2.00;;;;;;;5.67;65.95;101098.97;5023850;28;20243;-53
2022/04/19 02:19:39;;;;;;;2.77;1.97;;;;;;;5.63;66.93;101098.00;5018815;28;20700;-53
2022/04/19 02:22:06;;;;;;;3.03;2.50;;;;;;;5.63;66.33;101100.63;5025833;28;20240;-53
2022/04/19 02:24:33;;;;;;;3.40;2.73;;;;;;;5.66;66.08;101090.28;5026155;28;20734;-52
2022/04/19 02:26:59;;;;;;;2.47;2.27;;;;;;;5.64;66.01;101099.75;5026691;28;20287;-53
2022/04/19 02:29:26;;;;;;;3.40;2.07;;;;;;;5.69;66.05;101092.97;5025734;28;20232;-53
2022/04/19 02:31:54;;;;;;;4.70;3.10;;;;;;;5.63;66.16;101103.22;5026531;28;20252;-53
2022/04/19 02:34:21;;;;;;;4.20;2.20;;;;;;;5.67;66.39;101099.84;5025918;28;20235;-53
2022/04/19 02:36:48;;;;;;;3.50;2.43;;;;;;;5.62;66.47;101103.19;5025369;28;20351;-53
2022/04/19 02:39:16;;;;;;;3.53;2.40;;;;;;;5.65;66.59;101098.03;5023275;28;20291;-53
2022/04/19 02:41:43;;;;;;;3.20;2.37;;;;;;;5.71;66.03;101101.69;5025663;28;20769;-52
2022/04/19 02:44:09;;;;;;;3.50;2.67;;;;;;;5.59;66.03;101106.59;5024984;28;20646;-52
2022/04/19 02:46:36;;;;;;;3.70;2.37;;;;;;;5.67;66.27;101104.19;5025853;28;20711;-52
2022/04/19 02:49:04;;;;;;;3.13;2.03;;;;;;;5.61;65.91;101107.50;5024330;28;20681;-52
2022/04/19 02:51:31;;;;;;;3.03;2.60;;;;;;;5.58;66.24;101103.94;5008073;28;20236;-54
2022/04/19 02:53:57;;;;;;;4.50;2.50;;;;;;;5.53;66.87;101109.03;5018899;28;20253;-54
2022/04/19 02:56:23;;;;;;;2.60;2.40;;;;;;;5.59;67.82;101105.72;5026334;28;20252;-52
2022/04/19 02:58:50;;;;;;;4.57;2.37;;;;;;;5.77;67.66;101107.91;5025756;28;20236;-53
2022/04/19 03:01:16;;;;;;;4.67;2.83;;;;;;;5.68;66.30;101105.94;5026429;28;20264;-53
2022/04/19 03:03:43;;;;;;;4.67;2.37;;;;;;;5.62;65.59;101101.47;5026520;28;20236;-53
2022/04/19 03:06:11;;;;;;;2.70;2.00;;;;;;;5.54;66.19;101102.09;5025283;28;20256;-53
2022/04/19 03:08:39;;;;;;;4.53;2.57;;;;;;;5.50;65.81;101101.16;5024756;28;21090;-53
2022/04/19 03:11:06;;;;;;;4.70;2.80;;;;;;;5.48;65.78;101095.03;5026765;28;20344;-52
2022/04/19 03:13:32;;;;;;;2.53;2.33;;;;;;;5.49;66.38;101099.41;5026961;28;20228;-53
2022/04/19 03:15:59;;;;;;;2.60;2.40;;;;;;;5.50;65.95;101095.94;5026019;28;20737;-52
2022/04/19 03:18:25;;;;;;;2.87;2.50;;;;;;;5.44;66.20;101095.78;5025257;28;20707;-54
2022/04/19 03:20:51;;;;;;;2.40;2.13;;;;;;;5.41;66.08;101090.50;5026076;28;20232;-53
2022/04/19 03:28:47;;;;;;;3.07;2.00;;;;;;;5.35;66.26;101086.03;5008786;28;20380;-52
2022/04/19 03:31:14;;;;;;;2.60;1.90;;;;;;;5.17;65.89;101090.75;5024774;28;20229;-52
2022/04/19 03:33:40;;;;;;;2.53;1.97;;;;;;;5.33;66.21;101092.00;5023170;28;20294;-53
2022/04/19 03:36:08;;;;;;;2.77;2.53;;;;;;;5.26;66.73;101091.88;5023683;28;20671;-53
2022/04/19 03:38:35;;;;;;;2.70;2.50;;;;;;;5.19;66.95;101094.25;5025219;28;20808;-53
2022/04/19 03:41:02;;;;;;;2.57;2.37;;;;;;;5.16;67.53;101089.88;5008209;28;20233;-53
2022/04/19 03:43:28;;;;;;;3.27;2.47;;;;;;;5.19;68.14;101087.31;5005941;28;20229;-54
2022/04/19 03:45:54;;;;;;;5.63;2.63;;;;;;;5.21;68.13;101092.59;5005957;28;20750;-54
2022/04/19 03:48:21;;;;;;;2.40;2.20;;;;;;;5.15;69.04;101097.63;5005634;28;20253;-54
2022/04/19 03:50:51;;;;;;;3.30;2.40;;;;;;;5.14;68.85;101090.66;5006398;28;20629;-53
2022/04/19 03:53:17;;;;;;;3.37;2.77;;;;;;;5.12;68.92;101093.22;5025594;28;20657;-53
2022/04/19 03:55:45;;;;;;;3.40;2.87;;;;;;;5.03;68.86;101092.97;5024598;28;20259;-53
2022/04/19 03:58:15;;;;;;;2.27;2.13;;;;;;;5.01;69.41;101105.06;5025075;28;20653;-58
2022/04/19 04:00:41;;;;;;;2.20;2.10;;;;;;;4.96;69.19;101098.84;5025460;28;20233;-54
2022/04/19 04:03:08;;;;;;;3.33;2.33;;;;;;;4.97;68.44;101100.59;5026058;28;20282;-53
2022/04/19 04:05:34;;;;;;;2.80;2.10;;;;;;;4.92;68.67;101104.81;5025458;28;20272;-52
2022/04/19 04:08:03;;;;;;;2.23;2.13;;;;;;;4.89;68.40;101099.53;5025601;28;20224;-52
2022/04/19 04:10:29;;;;;;;6.00;2.30;;;;;;;4.95;69.06;101094.47;5024829;28;20282;-52
2022/04/19 04:12:58;;;;;;;2.33;2.13;;;;;;;4.91;68.44;101087.41;5025179;28;20241;-52
2022/04/19 04:15:25;;;;;;;2.87;2.50;;;;;;;5.03;68.68;101087.78;5019870;28;20290;-52
2022/04/19 04:17:51;;;;;;;3.17;2.33;;;;;;;4.97;69.13;101092.81;5019703;28;20260;-54
2022/04/19 04:20:19;;;;;;;3.87;2.60;;;;;;;4.91;69.15;101097.84;5008842;28;20261;-52
2022/04/19 04:22:46;;;;;;;3.43;2.53;;;;;;;4.91;68.88;101090.03;5017278;28;20229;-53
2022/04/19 04:25:12;;;;;;;3.80;2.80;;;;;;;4.87;68.43;101096.88;5025274;28;20236;-53
2022/04/19 04:27:38;;;;;;;3.50;2.63;;;;;;;4.94;69.44;101084.91;5021971;28;20320;-52
2022/04/19 04:30:07;;;;;;;3.27;2.77;;;;;;;4.91;69.05;101098.72;5005152;28;20291;-52
2022/04/19 04:32:34;;;;;;;5.60;2.60;;;;;;;4.89;69.50;101086.53;5023046;28;20318;-52
2022/04/19 04:35:00;;;;;;;3.53;2.80;;;;;;;4.93;69.60;101096.16;5025133;28;20236;-53
2022/04/19 04:37:26;;;;;;;4.43;3.23;;;;;;;4.88;69.93;101098.66;5026701;28;20233;-52
2022/04/19 04:39:53;;;;;;;3.83;2.53;;;;;;;4.85;70.08;101106.38;5027774;28;20240;-53
2022/04/19 04:42:19;;;;;;;3.03;2.67;;;;;;;4.86;69.64;101109.84;5029007;28;20236;-52
2022/04/19 04:44:45;;;;;;;3.67;3.37;;;;;;;4.86;70.23;101110.72;5012804;28;20229;-53
2022/04/19 04:49:59;;;;;;;5.73;2.30;;;;;;;4.88;69.95;101102.94;5027768;28;20243;-52
2022/04/19 04:52:26;;;;;;;3.37;2.57;;;;;;;4.81;70.59;101103.63;5028699;28;20322;-53
2022/04/19 04:54:52;;;;;;;3.87;2.37;;;;;;;4.76;71.76;101103.50;5028963;28;20294;-53
2022/04/19 04:57:19;;;;;;;4.00;2.80;;;;;;;4.78;72.30;101102.72;5029354;28;20240;-53
2022/04/19 04:59:48;;;;;;;3.40;2.67;;;;;;;4.85;71.71;101103.75;5027899;28;20240;-52
2022/04/19 05:02:16;;;;;;;4.43;2.67;;;;;;;4.86;71.76;101104.63;5027644;28;20270;-52
2022/04/19 05:04:42;;;;;;;3.40;2.60;;;;;;;4.97;72.35;101098.00;5027887;28;20703;-52
2022/04/19 05:07:08;;;;;;;4.97;2.90;;;;;;;4.96;72.41;101098.84;5028095;28;20241;-53
2022/04/19 05:09:35;;;;;;;3.20;2.90;;;;;;;4.98;72.69;101098.06;5027489;28;20225;-53
2022/04/19 05:12:01;;;;;;;2.67;2.13;;;;;;;5.03;73.12;101108.59;5028237;28;20306;-52
2022/04/19 05:14:27;;;;;;;3.37;2.70;;;;;;;5.00;73.26;101104.19;5027929;28;20260;-52
2022/04/19 05:16:54;;;;;;;7.10;3.83;;;;;;;5.09;74.08;101108.78;5028606;28;20346;-52
2022/04/19 05:19:22;;;;;;;4.77;3.80;;;;;;;5.15;73.38;101103.69;5027266;28;20236;-53
2022/04/19 05:21:48;;;;;;;4.33;2.70;;;;;;;5.14;73.73;101096.75;5027307;28;20621;-52
2022/04/19 05:24:14;;;;;;;5.50;2.77;;;;;;;5.13;74.17;101100.19;5024977;28;20239;-53
2022/04/19 05:26:45;;;;;;;2.80;2.40;;;;;;;5.14;74.06;101101.94;5026981;28;20733;-53
2022/04/19 05:29:11;;;;;;;6.40;3.60;;;;;;;5.13;74.34;101102.81;5026761;28;20240;-52
2022/04/19 05:31:38;;;;;;;5.30;4.27;;;;;;;5.18;74.50;101101.19;5015934;28;20581;-53
2022/04/19 05:34:04;;;;;;;4.57;3.33;;;;;;;5.26;75.04;101109.19;5007616;28;20596;-51
2022/04/19 05:36:32;;;;;;;3.43;2.90;;;;;;;5.31;75.03;101114.53;5025837;28;20286;-53
2022/04/19 05:38:58;;;;;;;3.30;3.00;;;;;;;5.40;74.66;101115.63;5027222;28;20260;-53
2022/04/19 05:41:25;;;;;;;3.97;3.37;;;;;;;5.45;74.54;101118.38;5028275;28;20373;-53
2022/04/19 05:43:53;;;;;;;5.17;3.10;;;;;;;5.64;75.16;101120.59;5028259;28;20232;-53
2022/04/19 05:46:20;;;;;;;4.07;3.37;;;;;;;5.57;73.67;101118.69;5028398;28;20310;-52
2022/04/19 05:48:46;;;;;;;5.87;3.73;;;;;;;5.81;73.75;101117.56;5026168;28;20849;-52
2022/04/19 05:51:13;;;;;;;4.23;3.27;;;;;;;5.83;72.48;101126.28;5027634;28;20228;-53
2022/04/19 05:53:41;;;;;;;5.47;3.40;;;;;;;6.06;74.85;101130.34;5027594;28;20765;-53
2022/04/19 05:56:09;;;;;;;5.63;3.20;;;;;;;5.93;72.46;101123.97;5026921;28;20298;-52
2022/04/19 05:58:39;;;;;;;7.30;3.30;;;;;;;5.90;72.47;101130.81;5026640;28;20286;-54
2022/04/19 06:01:06;;;;;;;5.30;3.40;;;;;;;6.00;72.31;101130.19;5027144;28;20598;-53
2022/04/19 06:06:32;;;;;;;3.77;3.47;;;;;;;6.07;71.03;101131.22;4964583;28;20370;-54
2022/04/19 06:09:00;;;;;;;3.50;3.10;;;;;;;6.06;71.33;101129.47;4964427;28;20332;-53
2022/04/19 06:11:26;;;;;;;8.87;3.50;;;;;;;6.05;72.12;101123.38;4982868;28;20237;-53
2022/04/19 06:13:53;;;;;;;4.10;3.00;;;;;;;6.17;73.08;101121.03;5019060;28;20722;-53
2022/04/19 06:16:19;;;;;;;4.53;3.27;;;;;;;6.48;71.09;101124.34;5025281;28;20705;-53
2022/04/19 06:18:45;;;;;;;4.23;3.40;;;;;;;6.51;69.29;101121.81;5024013;28;20286;-53
2022/04/19 06:21:12;;;;;;;3.40;3.07;;;;;;;6.50;69.22;101132.22;5014429;28;20260;-54
2022/04/19 06:23:38;;;;;;;5.00;3.30;;;;;;;6.51;69.02;101134.84;5026120;28;20236;-52
2022/04/19 06:26:06;;;;;;;5.20;3.20;;;;;;;6.45;68.17;101125.16;5024705;28;20236;-52
2022/04/19 06:28:32;;;;;;;3.23;2.93;;;;;;;6.52;68.13;101131.38;5025503;28;20678;-53
2022/04/19 06:30:58;;;;;;;5.50;3.33;;;;;;;6.61;68.69;101129.00;5025854;28;20726;-53
2022/04/19 06:33:28;;;;;;;4.40;3.20;;;;;;;6.68;67.60;101130.88;5026348;28;20236;-53
2022/04/19 06:35:54;;;;;;;3.90;3.43;;;;;;;6.83;66.34;101124.22;5026195;28;20248;-53
2022/04/19 06:38:21;;;;;;;5.10;4.20;;;;;;;7.02;65.94;101122.84;5026305;28;20232;-53
2022/04/19 06:40:47;;;;;;;10.93;3.43;;;;;;;7.10;66.93;101124.78;5026689;28;20232;-52
2022/04/19 06:43:15;;;;;;;5.90;3.87;;;;;;;7.20;66.04;101117.13;5026353;28;20236;-52
2022/04/19 06:45:43;;;;;;;3.63;3.20;;;;;;;7.56;66.89;101123.00;5026316;28;20533;-53
2022/04/19 06:48:11;;;;;;;3.60;3.00;;;;;;;7.60;65.84;101122.19;5025275;28;20874;-53
2022/04/19 06:50:37;;;;;;;3.63;2.87;;;;;;;7.73;63.77;101125.91;5025830;28;20345;-52
2022/04/19 06:53:05;;;;;;;4.33;3.50;;;;;;;7.90;63.43;101128.81;5025499;28;20320;-52
2022/04/19 06:55:31;;;;;;;6.50;3.57;;;;;;;7.78;61.22;101139.94;5026255;28;20753;-52
2022/04/19 06:57:57;;;;;;;4.77;4.07;;;;;;;7.85;61.27;101135.69;5026346;28;20279;-52
2022/04/19 07:00:25;;;;;;;6.73;3.47;;;;;;;7.76;62.02;101131.19;5025293;28;20715;-54
2022/04/19 07:02:51;;;;;;;4.43;3.67;;;;;;;7.84;62.21;101137.41;5026484;28;20697;-53
2022/04/19 07:05:18;;;;;;;5.07;3.50;;;;;;;7.98;62.06;101132.41;5025719;28;20672;-53
2022/04/19 07:07:44;;;;;;;4.33;3.53;;;;;;;7.95;61.09;101141.94;5026036;28;20439;-52
2022/04/19 07:10:11;;;;;;;5.00;3.10;;;;;;;8.03;61.07;101138.59;5025046;28;20239;-53
2022/04/19 07:12:38;;;;;;;5.30;3.67;;;;;;;8.07;60.71;101140.44;5026281;28;20321;-52
2022/04/19 07:15:06;;;;;;;5.93;3.67;;;;;;;8.19;60.08;101136.22;5025538;28;20256;-54
2022/04/19 07:17:37;;;;;;;3.73;3.40;;;;;;;8.31;58.71;101137.28;5021600;28;20854;-54
2022/04/19 07:28:16;;;;;;;4.63;3.67;;;;;;;8.62;56.54;101142.09;5005537;28;20239;-54
2022/04/19 07:30:43;;;;;;;5.03;3.37;;;;;;;8.83;55.07;101139.75;5005876;28;20707;-54
2022/04/19 07:33:12;;;;;;;5.47;3.70;;;;;;;8.96;54.07;101131.19;5005931;28;20233;-53
2022/04/19 07:35:39;;;;;;;3.97;3.57;;;;;;;8.91;52.52;101135.50;5019467;28;20259;-52
2022/04/19 07:38:06;;;;;;;4.77;3.77;;;;;;;9.01;51.80;101126.88;5024729;28;20599;-53
2022/04/19 07:40:36;;;;;;;3.40;3.10;;;;;;;9.07;51.81;101126.97;5024881;28;20737;-53
2022/04/19 07:43:04;;;;;;;5.30;3.37;;;;;;;9.23;50.46;101129.75;5025533;28;20238;-53
2022/04/19 07:45:30;;;;;;;3.90;2.70;;;;;;;9.35;49.55;101131.63;5024754;28;20547;-52
2022/04/19 07:47:57;;;;;;;3.47;2.43;;;;;;;9.45;52.20;101123.88;5025648;28;20236;-53
2022/04/19 07:50:25;;;;;;;4.07;2.67;;;;;;;9.49;52.67;101130.91;5025091;28;20240;-54
2022/04/19 07:52:51;;;;;;;5.73;3.13;;;;;;;9.53;51.17;101131.81;5025687;28;20305;-52
2022/04/19 07:55:17;;;;;;;2.93;2.60;;;;;;;9.68;50.62;101136.31;5025751;28;20363;-52
2022/04/19 07:57:45;;;;;;;7.60;3.20;;;;;;;9.78;48.15;101130.28;5025385;28;20704;-53
2022/04/19 08:00:13;;;;;;;3.30;3.00;;;;;;;9.91;48.08;101137.41;5024674;28;20328;-52
2022/04/19 08:02:40;;;;;;;2.60;2.40;;;;;;;10.02;47.47;101133.09;5025505;28;20241;-53
2022/04/19 08:05:07;;;;;;;2.93;2.40;;;;;;;10.18;46.67;101123.63;5025238;28;20698;-54
2022/04/19 08:07:35;;;;;;;3.20;2.47;;;;;;;10.27;47.53;101131.56;5024317;28;21448;-54
2022/04/19 08:10:02;;;;;;;3.67;2.60;;;;;;;10.51;46.06;101122.97;5023799;28;20233;-52
2022/04/19 08:12:28;;;;;;;3.97;3.20;;;;;;;10.70;45.87;101128.31;5018560;28;20239;-54
2022/04/19 08:14:55;;;;;;;2.97;2.47;;;;;;;10.86;44.86;101129.28;5021977;28;20241;-52
2022/04/19 08:17:22;;;;;;;6.03;2.40;;;;;;;10.97;44.27;101123.16;5029771;28;20296;-53
2022/04/19 08:19:48;;;;;;;2.60;2.10;;;;;;;11.11;43.69;101125.84;5048417;28;20235;-52
2022/04/19 08:22:16;;;;;;;2.90;2.17;;;;;;;11.34;43.06;101112.78;5026911;28;20689;-52
2022/04/19 08:24:43;;;;;;;2.67;2.47;;;;;;;11.48;42.80;101125.94;5008908;28;20295;-53
2022/04/19 08:27:10;;;;;;;2.70;2.50;;;;;;;11.58;42.43;101111.94;5028003;28;20302;-53
2022/04/19 08:29:36;;;;;;;3.03;2.17;;;;;;;11.68;42.76;101118.06;5027728;28;20228;-54
2022/04/19 08:32:03;;;;;;;2.58;2.08;;;;;;;11.87;41.34;101119.88;5029208;28;20248;-53
2022/04/19 08:34:30;;;;;;;3.33;1.90;;;;;;;11.93;42.05;101109.34;5028889;28;20236;-52
2022/04/19 08:36:58;;;;;;;2.38;2.17;;;;;;;11.98;41.30;101116.34;5028772;28;20294;-54
2022/04/19 08:39:28;;;;;;;2.10;1.90;;;;;;;12.06;41.03;101112.81;5027479;28;20320;-54
2022/04/19 08:41:56;;;;;;;3.25;2.35;;;;;;;12.16;40.59;101113.69;5029126;28;20290;-55
2022/04/19 08:44:22;;;;;;;2.75;2.00;;;;;;;12.20;40.79;101115.44;5028763;28;20232;-53
2022/04/19 08:46:49;;;;;;;2.20;1.80;;;;;;;12.25;40.37;101110.16;5028790;28;20241;-52
2022/04/19 08:49:18;;;;;;;3.13;2.08;;;;;;;12.14;40.46;101102.28;5027280;28;20237;-53
2022/04/19 08:51:48;;;;;;;8.38;2.10;;;;;;;11.98;41.24;101104.06;5028082;28;20266;-52
2022/04/19 08:59:44;;;;;;;3.97;2.28;;;;;;;12.86;38.91;101105.59;5026899;28;20267;-53
2022/04/19 09:02:20;;;;;;;2.00;1.80;;;;;;;12.83;39.96;101108.22;5028540;28;20232;-53
2022/04/19 09:04:46;;;;;;;2.95;2.47;;;;;;;12.95;39.54;101109.06;5028469;28;20324;-52
2022/04/19 09:07:14;;;;;;;2.72;1.85;;;;;;;13.07;38.76;101103.75;5027641;28;20232;-53
2022/04/19 09:09:41;;;;;;;2.55;1.67;;;;;;;13.28;38.76;101105.41;5024920;28;20260;-52
2022/04/19 09:12:11;;;;;;;2.25;2.05;;;;;;;13.49;38.61;101112.31;5027947;28;20224;-52
2022/04/19 09:14:40;;;;;;;2.08;1.88;;;;;;;13.50;38.58;101111.41;5025598;28;20283;-53
2022/04/19 09:17:08;;;;;;;2.40;2.20;;;;;;;13.53;38.60;101119.31;5027558;28;20295;-53
2022/04/19 09:19:37;;;;;;;1.88;1.70;;;;;;;13.53;37.96;101114.03;5026334;28;20750;-52
2022/04/19 09:22:09;;;;;;;3.47;2.03;;;;;;;13.36;38.00;101122.91;5027531;28;20233;-54
2022/04/19 09:24:35;;;;;;;4.20;1.92;;;;;;;13.58;38.84;101114.84;5026027;28;20275;-53
2022/04/19 09:27:01;;;;;;;1.45;1.25;;;;;;;13.81;37.98;101115.56;5027542;28;20271;-53
2022/04/19 09:29:29;;;;;;;1.42;1.33;;;;;;;13.98;38.05;101122.47;5026120;28;20240;-52
2022/04/19 09:32:01;;;;;;;2.05;1.20;;;;;;;14.18;36.61;101109.97;5027280;28;20275;-53
2022/04/19 09:34:30;;;;;;;1.42;1.33;;;;;;;14.08;36.58;101108.31;5028020;28;20236;-52
2022/04/19 09:37:10;;;;;;;3.65;1.63;;;;;;;14.11;36.31;101112.66;5027361;28;20244;-52
2022/04/19 09:39:37;;;;;;;1.33;1.20;;;;;;;14.11;37.76;101110.94;5026785;28;20240;-53
2022/04/19 09:42:11;;;;;;;2.47;1.10;;;;;;;14.16;37.07;101105.59;5027281;28;20236;-53
2022/04/19 09:44:40;;;;;;;1.52;1.42;;;;;;;14.28;36.44;101111.59;5027491;28;20298;-53
2022/04/19 09:47:08;;;;;;;2.50;1.52;;;;;;;14.00;37.88;101110.13;5026817;28;20702;-54
2022/04/19 09:49:45;;;;;;;3.92;1.27;;;;;;;14.24;36.80;101103.75;5026594;28;20753;-54
2022/04/19 09:52:38;;;;;;;1.55;1.42;;;;;;;14.46;35.50;101107.03;5027806;28;20433;-53
2022/04/19 09:55:06;;;;;;;1.33;1.02;;;;;;;14.70;34.55;101104.13;5026732;28;20232;-53
2022/04/19 09:57:39;;;;;;;2.13;1.23;;;;;;;14.86;33.58;101103.97;5027532;28;20231;-53
2022/04/19 10:00:10;;;;;;;2.88;1.58;;;;;;;14.98;33.53;101098.50;5027035;28;20236;-53
2022/04/19 10:08:14;;;;;;;1.00;1.00;;;;;;;14.43;35.22;101096.50;5026911;28;20382;-54
2022/04/19 10:10:42;;;;;;;2.60;1.40;;;;;;;14.30;35.42;101093.13;5026550;28;20646;-52
2022/04/19 10:13:08;;;;;;;1.50;1.08;;;;;;;14.48;35.35;101102.59;5027253;28;20232;-54
2022/04/19 10:15:37;;;;;;;2.00;1.60;;;;;;;14.15;35.07;101099.44;5025256;28;20588;-53
2022/04/19 10:18:04;;;;;;;3.53;1.88;;;;;;;14.14;35.42;101097.66;5020329;28;20234;-54
2022/04/19 10:20:39;;;;;;;2.03;1.60;;;;;;;13.91;35.90;101102.31;5025777;28;20245;-53
2022/04/19 10:23:08;;;;;;;3.58;1.23;;;;;;;13.56;36.79;101082.34;5026942;28;20235;-53
2022/04/19 10:25:43;;;;;;;2.63;1.30;;;;;;;13.77;35.85;101091.88;5026742;28;20734;-53
2022/04/19 10:28:13;;;;;;;2.15;1.35;;;;;;;14.04;35.83;101101.31;5026965;28;20655;-53
2022/04/19 10:30:51;;;;;;;2.92;1.55;;;;;;;14.16;35.92;101085.34;5026681;28;20240;-53
2022/04/19 10:33:48;;;;;;;1.38;1.27;;;;;;;14.41;34.37;101087.72;5027096;28;20236;-52
2022/04/19 10:36:16;;;;;;;2.40;1.23;;;;;;;14.34;35.99;101094.81;5026468;28;20243;-52
2022/04/19 10:38:43;;;;;;;1.40;1.27;;;;;;;14.59;34.82;101099.88;5026184;28;20232;-53
2022/04/19 10:41:09;;;;;;;0.93;0.93;;;;;;;14.90;35.41;101090.66;5026776;28;20251;-54
2022/04/19 10:43:36;;;;;;;1.63;1.50;;;;;;;14.64;35.71;101098.94;5026719;28;20354;-53
2022/04/19 10:46:22;;;;;;;1.00;0.90;;;;;;;14.68;35.67;101084.78;5026447;28;20237;-53
2022/04/19 10:49:22;;;;;;;1.45;1.25;;;;;;;14.78;34.42;101093.47;5025641;28;20294;-53
2022/04/19 10:51:48;;;;;;;1.33;1.17;;;;;;;15.10;34.01;101098.34;5026634;28;20712;-53
2022/04/19 10:54:15;;;;;;;2.97;1.48;;;;;;;15.37;34.21;101088.25;5027667;28;20637;-53
2022/04/19 10:58:05;;;;;;;2.33;1.48;;;;;;;15.12;34.06;101091.25;5028793;28;20248;-53
2022/04/19 11:00:01;;;;;;;4.07;2.08;;;;;;;15.01;34.52;101094.03;5025177;28;20228;-53
2022/04/19 11:02:38;;;;;;;1.95;1.45;;;;;;;15.17;33.76;101089.44;5024331;28;20298;-52
2022/04/19 11:05:05;;;;;;;1.35;1.25;;;;;;;15.47;32.16;101092.50;5025778;28;20232;-53
2022/04/19 11:07:42;;;;;;;0.98;0.98;;;;;;;15.15;34.34;101080.63;5025513;28;20247;-53
2022/04/19 11:10:11;;;;;;;2.13;1.42;;;;;;;14.53;34.74;101085.84;5025790;28;20232;-53
2022/04/19 11:12:56;;;;;;;2.63;1.05;;;;;;;13.99;35.93;101093.41;5026493;28;20266;-54
2022/04/19 11:15:36;;;;;;;1.33;1.23;;;;;;;14.42;35.22;101087.69;5022698;28;20233;-54
2022/04/19 11:18:25;;;;;;;2.95;1.70;;;;;;;14.59;34.41;101090.16;5026272;28;20311;-52
2022/04/19 11:20:53;;;;;;;2.72;1.83;;;;;;;14.05;37.93;101101.28;5025794;28;20706;-53
2022/04/19 11:23:21;;;;;;;1.83;1.42;;;;;;;13.94;36.31;101095.22;5025722;28;20236;-53
2022/04/19 11:25:54;;;;;;;4.82;2.13;;;;;;;13.60;35.91;101084.94;5025615;28;20237;-52
2022/04/19 11:28:25;;;;;;;1.52;1.20;;;;;;;14.08;35.65;101087.19;5024846;28;20236;-52
2022/04/19 11:31:28;;;;;;;2.45;1.08;;;;;;;14.65;34.19;101079.53;5025301;28;20233;-53
2022/04/19 11:34:00;;;;;;;1.42;1.33;;;;;;;15.14;33.78;101089.47;5026104;28;20678;-54
2022/04/19 11:36:27;;;;;;;3.47;1.80;;;;;;;14.85;34.73;101088.97;5027842;28;20233;-54
2022/04/19 11:38:53;;;;;;;3.28;1.33;;;;;;;15.21;34.18;101087.59;5026794;28;20266;-57
2022/04/19 11:47:01;;;;;;;2.78;1.38;;;;;;;16.13;33.07;101094.94;4969425;28;20243;-53
2022/04/19 11:49:30;;;;;;;2.05;1.63;;;;;;;15.82;33.93;101099.03;5025719;28;20229;-54
2022/04/19 11:51:58;;;;;;;1.50;1.40;;;;;;;15.09;33.91;101101.88;5025832;28;20315;-54
2022/04/19 11:54:26;;;;;;;3.00;1.73;;;;;;;14.82;36.61;101094.31;5025986;28;20575;-53
2022/04/19 11:56:53;;;;;;;1.98;1.77;;;;;;;14.52;35.67;101094.66;5039266;28;20289;-53
2022/04/19 11:59:28;;;;;;;1.67;1.42;;;;;;;14.51;35.81;101099.97;5039006;28;20232;-54
2022/04/19 12:01:55;;;;;;;2.25;1.55;;;;;;;14.06;36.35;101100.38;5036759;28;20236;-53
2022/04/19 12:04:21;;;;;;;3.65;1.60;;;;;;;13.91;37.13;101089.97;5045637;28;20239;-53
2022/04/19 12:06:50;;;;;;;1.45;1.25;;;;;;;14.23;36.40;101094.06;5031867;28;20758;-54
2022/04/19 12:09:18;;;;;;;1.60;1.50;;;;;;;14.62;36.82;101090.13;5025729;28;20236;-54
2022/04/19 12:11:46;;;;;;;1.80;1.70;;;;;;;14.49;37.29;101094.66;5026807;28;20236;-53
2022/04/19 12:14:23;;;;;;;2.35;1.50;;;;;;;14.14;38.31;101100.31;5025536;28;20236;-57
2022/04/19 12:17:00;;;;;;;2.83;1.92;;;;;;;14.17;36.85;101113.47;5037513;28;20286;-54